createdAt,value
2023-04-07T00:00:51.126Z,25.75
2023-04-07T00:01:51.138Z,25.74
2023-04-07T00:02:51.136Z,25.71
2023-04-07T00:03:51.292Z,25.75
2023-04-07T00:04:51.121Z,25.77
2023-04-07T00:05:51.072Z,25.77
2023-04-07T00:06:51.070Z,25.77
2023-04-07T00:07:56.350Z,25.77
2023-04-07T00:08:51.065Z,25.77
2023-04-07T00:09:51.054Z,25.79
2023-04-07T00:10:51.077Z,25.79
2023-04-07T00:11:51.050Z,25.78
2023-04-07T00:12:51.055Z,25.81
2023-04-07T00:13:51.071Z,25.78
2023-04-07T00:14:51.026Z,25.79
2023-04-07T00:15:51.053Z,25.82
2023-04-07T00:16:51.020Z,25.84
2023-04-07T00:17:51.067Z,25.85
2023-04-07T00:18:51.013Z,25.84
2023-04-07T00:19:51.010Z,25.87
2023-04-07T00:20:51.015Z,25.87
2023-04-07T00:21:51.005Z,25.88
2023-04-07T00:22:51.002Z,25.87
2023-04-07T00:23:50.989Z,25.88
2023-04-07T00:24:50.993Z,25.92
2023-04-07T00:25:50.986Z,25.89
2023-04-07T00:26:51.019Z,25.91
2023-04-07T00:27:50.986Z,25.91
2023-04-07T00:28:50.978Z,25.92
2023-04-07T00:29:50.973Z,25.92
2023-04-07T00:30:50.991Z,25.91
2023-04-07T00:31:50.954Z,25.93
2023-04-07T00:32:50.991Z,25.95
2023-04-07T00:33:50.941Z,25.91
2023-04-07T00:34:50.928Z,25.92
2023-04-07T00:35:50.958Z,25.93
2023-04-07T00:36:50.919Z,25.95
2023-04-07T00:37:50.914Z,25.95
2023-04-07T00:38:50.953Z,25.95
2023-04-07T00:39:50.989Z,25.95
2023-04-07T00:40:51.036Z,25.96
2023-04-07T00:41:51.072Z,25.96
2023-04-07T00:42:51.135Z,25.96
2023-04-07T00:43:51.203Z,25.95
2023-04-07T00:44:51.195Z,25.95
2023-04-07T00:45:51.243Z,25.96
2023-04-07T00:46:51.361Z,25.95
2023-04-07T00:47:51.399Z,25.98
2023-04-07T00:48:51.411Z,25.96
2023-04-07T00:49:51.459Z,25.96
2023-04-07T00:50:51.506Z,25.98
2023-04-07T00:51:51.572Z,25.99
2023-04-07T00:52:51.615Z,25.96
2023-04-07T00:53:51.689Z,25.98
2023-04-07T00:54:51.726Z,25.99
2023-04-07T00:55:51.819Z,25.98
2023-04-07T00:56:51.815Z,25.98
2023-04-07T00:57:51.882Z,26.00
2023-04-07T00:58:51.958Z,25.99
2023-04-07T00:59:51.992Z,26.00
2023-04-07T01:00:52.054Z,25.98
2023-04-07T01:01:52.147Z,26.00
2023-04-07T01:02:52.351Z,25.98
2023-04-07T01:03:52.548Z,25.99
2023-04-07T01:04:52.376Z,25.99
2023-04-07T01:05:52.301Z,25.99
2023-04-07T01:06:53.300Z,25.99
2023-04-07T01:07:52.404Z,25.99
2023-04-07T01:08:52.455Z,25.99
2023-04-07T01:09:52.500Z,25.99
2023-04-07T01:10:52.532Z,25.98
2023-04-07T01:11:52.559Z,25.99
2023-04-07T01:12:52.615Z,26.00
2023-04-07T01:13:53.253Z,25.99
2023-04-07T01:14:52.729Z,25.98
2023-04-07T01:15:52.832Z,26.00
2023-04-07T01:16:54.672Z,25.99
2023-04-07T01:17:52.827Z,25.99
2023-04-07T01:18:52.798Z,26.00
2023-04-07T01:19:52.783Z,26.02
2023-04-07T01:20:52.779Z,25.98
2023-04-07T01:21:52.772Z,25.99
2023-04-07T01:22:52.751Z,26.00
2023-04-07T01:23:53.125Z,26.02
2023-04-07T01:24:52.738Z,26.00
2023-04-07T01:25:52.727Z,26.02
2023-04-07T01:26:52.711Z,25.99
2023-04-07T01:27:52.689Z,25.99
2023-04-07T01:28:52.683Z,26.00
2023-04-07T01:29:52.672Z,26.00
2023-04-07T01:30:52.691Z,26.00
2023-04-07T01:31:52.678Z,26.00
2023-04-07T01:32:53.346Z,25.98
2023-04-07T01:33:52.859Z,26.00
2023-04-07T01:34:52.605Z,26.02
2023-04-07T01:35:52.784Z,26.02
2023-04-07T01:36:52.614Z,26.00
2023-04-07T01:37:52.582Z,25.99
2023-04-07T01:38:52.580Z,26.00
2023-04-07T01:39:52.553Z,26.02
2023-04-07T01:40:52.613Z,26.02
2023-04-07T01:41:52.652Z,26.02
2023-04-07T01:42:52.716Z,26.02
2023-04-07T01:43:52.914Z,26.02
2023-04-07T01:44:52.849Z,26.00
2023-04-07T01:45:52.874Z,26.02
2023-04-07T01:46:52.995Z,26.02
2023-04-07T01:47:52.979Z,26.02
2023-04-07T01:48:53.018Z,26.02
2023-04-07T01:49:53.087Z,26.02
2023-04-07T01:50:53.151Z,26.02
2023-04-07T01:51:53.178Z,26.00
2023-04-07T01:52:53.226Z,26.03
2023-04-07T01:53:53.456Z,26.05
2023-04-07T01:54:53.322Z,26.03
2023-04-07T01:55:53.397Z,26.03
2023-04-07T01:56:54.292Z,26.02
2023-04-07T01:57:53.500Z,26.03
2023-04-07T01:58:53.559Z,26.05
2023-04-07T01:59:53.589Z,26.03
2023-04-07T02:00:53.651Z,26.02
2023-04-07T02:01:53.876Z,26.03
2023-04-07T02:02:53.956Z,26.03
2023-04-07T02:03:54.302Z,26.02
2023-04-07T02:04:53.814Z,26.00
2023-04-07T02:05:53.865Z,26.02
2023-04-07T02:06:53.918Z,26.03
2023-04-07T02:07:53.959Z,26.05
2023-04-07T02:08:54.009Z,26.02
2023-04-07T02:09:54.055Z,26.02
2023-04-07T02:10:54.122Z,26.03
2023-04-07T02:11:54.175Z,26.03
2023-04-07T02:12:54.227Z,26.00
2023-04-07T02:13:54.465Z,26.00
2023-04-07T02:14:54.315Z,26.00
2023-04-07T02:15:54.365Z,26.00
2023-04-07T02:16:54.515Z,26.00
2023-04-07T02:17:54.508Z,26.00
2023-04-07T02:18:54.546Z,26.02
2023-04-07T02:19:54.560Z,26.00
2023-04-07T02:20:54.607Z,26.02
2023-04-07T02:21:54.668Z,26.00
2023-04-07T02:22:54.726Z,25.99
2023-04-07T02:23:55.105Z,26.00
2023-04-07T02:24:54.834Z,26.03
2023-04-07T02:25:54.898Z,26.03
2023-04-07T02:26:54.951Z,26.02
2023-04-07T02:27:55.023Z,26.00
2023-04-07T02:28:55.059Z,25.99
2023-04-07T02:29:55.114Z,26.00
2023-04-07T02:30:55.169Z,26.00
2023-04-07T02:31:55.288Z,26.02
2023-04-07T02:32:55.333Z,26.03
2023-04-07T02:33:55.467Z,26.02
2023-04-07T02:34:55.421Z,26.02
2023-04-07T02:35:55.459Z,26.00
2023-04-07T02:36:56.325Z,26.00
2023-04-07T02:37:55.567Z,26.02
2023-04-07T02:38:55.614Z,26.02
2023-04-07T02:39:55.668Z,26.00
2023-04-07T02:40:55.739Z,26.00
2023-04-07T02:41:56.151Z,26.02
2023-04-07T02:42:56.196Z,26.02
2023-04-07T02:43:56.479Z,26.02
2023-04-07T02:44:56.201Z,26.02
2023-04-07T02:45:56.224Z,26.02
2023-04-07T02:46:56.199Z,26.02
2023-04-07T02:47:56.228Z,26.00
2023-04-07T02:48:57.156Z,26.02
2023-04-07T02:49:56.215Z,26.02
2023-04-07T02:50:56.307Z,26.00
2023-04-07T02:51:56.338Z,26.02
2023-04-07T02:52:56.402Z,26.00
2023-04-07T02:53:56.628Z,26.03
2023-04-07T02:54:56.521Z,26.00
2023-04-07T02:55:56.566Z,26.02
2023-04-07T02:56:57.124Z,26.03
2023-04-07T02:57:56.672Z,26.03
2023-04-07T02:58:57.136Z,26.03
2023-04-07T02:59:57.122Z,26.03
2023-04-07T03:00:57.124Z,26.03
2023-04-07T03:01:57.332Z,26.00
2023-04-07T03:02:57.203Z,26.02
2023-04-07T03:03:57.372Z,26.00
2023-04-07T03:04:57.123Z,26.02
2023-04-07T03:05:57.130Z,26.02
2023-04-07T03:06:57.201Z,26.02
2023-04-07T03:07:57.230Z,26.02
2023-04-07T03:08:57.279Z,25.99
2023-04-07T03:09:57.340Z,25.98
2023-04-07T03:10:57.402Z,26.02
2023-04-07T03:11:58.325Z,26.02
2023-04-07T03:12:57.513Z,26.00
2023-04-07T03:13:57.561Z,26.02
2023-04-07T03:14:57.609Z,26.02
2023-04-07T03:15:57.659Z,25.99
2023-04-07T03:16:57.728Z,25.99
2023-04-07T03:17:57.856Z,26.00
2023-04-07T03:18:57.846Z,26.03
2023-04-07T03:19:57.885Z,25.99
2023-04-07T03:20:57.935Z,26.02
2023-04-07T03:21:57.988Z,26.02
2023-04-07T03:22:58.070Z,26.02
2023-04-07T03:23:58.089Z,26.00
2023-04-07T03:24:58.124Z,26.00
2023-04-07T03:25:58.176Z,25.99
2023-04-07T03:26:58.212Z,25.99
2023-04-07T03:27:58.252Z,26.03
2023-04-07T03:28:58.303Z,26.00
2023-04-07T03:29:58.352Z,26.02
2023-04-07T03:30:58.428Z,26.03
2023-04-07T03:31:58.439Z,25.99
2023-04-07T03:32:58.502Z,26.03
2023-04-07T03:33:58.554Z,26.00
2023-04-07T03:34:58.612Z,26.00
2023-04-07T03:35:58.705Z,26.00
2023-04-07T03:36:58.730Z,26.00
2023-04-07T03:37:58.781Z,26.00
2023-04-07T03:38:58.855Z,25.99
2023-04-07T03:39:58.891Z,26.00
2023-04-07T03:40:58.936Z,25.99
2023-04-07T03:41:59.049Z,25.99
2023-04-07T03:42:59.060Z,26.00
2023-04-07T03:43:59.099Z,25.99
2023-04-07T03:44:59.153Z,25.99
2023-04-07T03:45:59.213Z,26.00
2023-04-07T03:46:59.274Z,26.02
2023-04-07T03:47:59.327Z,25.99
2023-04-07T03:48:59.374Z,26.05
2023-04-07T03:49:59.442Z,26.02
2023-04-07T03:50:59.474Z,26.00
2023-04-07T03:51:59.534Z,26.02
2023-04-07T03:52:59.585Z,26.00
2023-04-07T03:53:59.633Z,25.99
2023-04-07T03:54:59.729Z,26.00
2023-04-07T03:55:59.737Z,26.00
2023-04-07T03:56:59.788Z,26.00
2023-04-07T03:57:59.836Z,25.99
2023-04-07T03:58:59.894Z,25.99
2023-04-07T03:59:59.952Z,26.00
2023-04-07T04:00:59.979Z,26.00
2023-04-07T04:02:00.095Z,26.00
2023-04-07T04:03:00.953Z,26.02
2023-04-07T04:04:00.367Z,26.00
2023-04-07T04:05:03.171Z,26.02
2023-04-07T04:06:00.193Z,26.00
2023-04-07T04:07:00.167Z,26.02
2023-04-07T04:08:00.149Z,25.98
2023-04-07T04:09:00.140Z,26.00
2023-04-07T04:10:00.174Z,26.00
2023-04-07T04:11:00.169Z,26.02
2023-04-07T04:12:00.129Z,25.99
2023-04-07T04:13:00.118Z,26.00
2023-04-07T04:14:00.145Z,25.99
2023-04-07T04:15:00.118Z,26.00
2023-04-07T04:16:00.186Z,25.99
2023-04-07T04:17:00.846Z,25.98
2023-04-07T04:18:00.161Z,26.00
2023-04-07T04:19:00.119Z,26.00
2023-04-07T04:20:00.151Z,25.98
2023-04-07T04:21:00.119Z,26.00
2023-04-07T04:22:00.074Z,26.00
2023-04-07T04:23:00.093Z,25.99
2023-04-07T04:24:00.054Z,26.00
2023-04-07T04:25:00.057Z,26.02
2023-04-07T04:26:00.072Z,26.02
2023-04-07T04:27:00.070Z,25.99
2023-04-07T04:28:00.060Z,25.99
2023-04-07T04:29:00.015Z,26.03
2023-04-07T04:30:00.006Z,26.02
2023-04-07T04:31:00.057Z,26.02
2023-04-07T04:32:00.001Z,25.99
2023-04-07T04:33:00.012Z,26.02
2023-04-07T04:33:59.976Z,25.99
2023-04-07T04:35:06.845Z,25.98
2023-04-07T04:35:59.964Z,26.00
2023-04-07T04:36:59.982Z,26.00
2023-04-07T04:37:59.961Z,25.99
2023-04-07T04:39:00.850Z,26.00
2023-04-07T04:39:59.927Z,26.00
2023-04-07T04:41:00.888Z,26.00
2023-04-07T04:41:59.939Z,26.00
2023-04-07T04:42:59.958Z,26.00
2023-04-07T04:43:59.922Z,26.02
2023-04-07T04:44:59.938Z,26.00
2023-04-07T04:45:59.927Z,26.00
2023-04-07T04:47:00.389Z,25.99
2023-04-07T04:48:00.066Z,25.98
2023-04-07T04:49:00.080Z,25.99
2023-04-07T04:50:00.166Z,26.02
2023-04-07T04:51:00.198Z,26.00
2023-04-07T04:52:00.869Z,25.99
2023-04-07T04:53:00.325Z,25.99
2023-04-07T04:54:00.364Z,25.99
2023-04-07T04:55:00.427Z,25.98
2023-04-07T04:56:00.863Z,26.00
2023-04-07T04:57:00.536Z,26.00
2023-04-07T04:58:00.598Z,26.00
2023-04-07T04:59:00.683Z,25.98
2023-04-07T05:00:01.372Z,26.00
2023-04-07T05:01:00.800Z,25.99
2023-04-07T05:02:00.912Z,25.99
2023-04-07T05:03:01.136Z,25.96
2023-04-07T05:04:04.166Z,25.99
2023-04-07T05:05:01.070Z,25.99
2023-04-07T05:06:00.932Z,25.99
2023-04-07T05:07:00.943Z,26.02
2023-04-07T05:08:02.211Z,26.00
2023-04-07T05:09:00.905Z,25.99
2023-04-07T05:10:00.905Z,26.00
2023-04-07T05:11:00.915Z,25.99
2023-04-07T05:12:00.908Z,26.00
2023-04-07T05:13:00.961Z,26.02
2023-04-07T05:14:01.026Z,25.99
2023-04-07T05:15:01.129Z,25.98
2023-04-07T05:16:01.185Z,26.00
2023-04-07T05:17:15.872Z,26.00
2023-04-07T05:18:01.189Z,25.99
2023-04-07T05:19:01.154Z,26.00
2023-04-07T05:20:01.141Z,25.99
2023-04-07T05:21:01.137Z,26.00
2023-04-07T05:22:03.864Z,26.00
2023-04-07T05:23:01.132Z,25.99
2023-04-07T05:24:01.128Z,26.02
2023-04-07T05:25:01.140Z,26.00
2023-04-07T05:26:01.109Z,25.99
2023-04-07T05:27:01.107Z,26.00
2023-04-07T05:28:01.098Z,26.02
2023-04-07T05:29:01.107Z,25.99
2023-04-07T05:30:01.101Z,26.00
2023-04-07T05:31:01.216Z,26.00
2023-04-07T05:32:01.158Z,25.99
2023-04-07T05:33:01.126Z,26.00
2023-04-07T05:34:01.101Z,25.98
2023-04-07T05:35:01.099Z,25.99
2023-04-07T05:36:01.213Z,25.99
2023-04-07T05:37:01.092Z,25.99
2023-04-07T05:38:01.106Z,26.00
2023-04-07T05:39:01.089Z,25.99
2023-04-07T05:40:01.078Z,25.98
2023-04-07T05:41:01.084Z,26.00
2023-04-07T05:42:01.072Z,26.02
2023-04-07T05:43:01.075Z,26.02
2023-04-07T05:44:01.066Z,26.03
2023-04-07T05:45:01.056Z,26.00
2023-04-07T05:46:01.063Z,25.99
2023-04-07T05:47:02.210Z,25.99
2023-04-07T05:48:01.095Z,25.98
2023-04-07T05:49:16.794Z,26.00
2023-04-07T05:50:01.385Z,26.02
2023-04-07T05:51:01.032Z,26.02
2023-04-07T05:52:01.025Z,25.99
2023-04-07T05:53:01.010Z,26.00
2023-04-07T05:54:01.004Z,26.00
2023-04-07T05:55:01.004Z,26.02
2023-04-07T05:56:01.003Z,25.99
2023-04-07T05:57:01.001Z,26.00
2023-04-07T05:58:01.016Z,26.00
2023-04-07T05:59:00.989Z,25.98
2023-04-07T06:00:00.988Z,26.00
2023-04-07T06:01:00.984Z,25.96
2023-04-07T06:02:08.329Z,26.00
2023-04-07T06:03:01.103Z,26.00
2023-04-07T06:04:03.893Z,25.98
2023-04-07T06:05:00.982Z,26.00
2023-04-07T06:06:00.959Z,26.00
2023-04-07T06:07:00.949Z,26.00
2023-04-07T06:08:00.948Z,25.99
2023-04-07T06:09:00.948Z,26.02
2023-04-07T06:10:00.949Z,25.98
2023-04-07T06:11:00.941Z,26.00
2023-04-07T06:12:00.936Z,25.99
2023-04-07T06:14:18.815Z,25.96
2023-04-07T06:15:20.189Z,25.99
2023-04-07T06:16:20.246Z,25.98
2023-04-07T06:17:20.257Z,26.00
2023-04-07T06:18:20.192Z,26.00
2023-04-07T06:19:20.186Z,25.96
2023-04-07T06:20:21.081Z,26.02
2023-04-07T06:21:20.146Z,26.00
2023-04-07T06:22:20.144Z,25.99
2023-04-07T06:23:20.192Z,25.98
2023-04-07T06:24:20.186Z,25.99
2023-04-07T06:25:20.186Z,25.99
2023-04-07T06:26:20.191Z,25.99
2023-04-07T06:27:20.491Z,25.99
2023-04-07T06:28:20.197Z,25.98
2023-04-07T06:29:20.497Z,25.98
2023-04-07T06:30:21.157Z,26.00
2023-04-07T06:31:20.326Z,25.99
2023-04-07T06:32:20.285Z,26.00
2023-04-07T06:33:20.352Z,26.02
2023-04-07T06:34:20.364Z,26.00
2023-04-07T06:35:20.429Z,26.02
2023-04-07T06:36:20.499Z,25.99
2023-04-07T06:37:20.530Z,26.00
2023-04-07T06:38:20.618Z,25.99
2023-04-07T06:39:20.653Z,25.99
2023-04-07T06:40:20.698Z,26.00
2023-04-07T06:41:21.205Z,25.99
2023-04-07T06:42:21.164Z,26.02
2023-04-07T06:43:21.209Z,26.00
2023-04-07T06:44:21.122Z,25.99
2023-04-07T06:45:21.127Z,26.00
2023-04-07T06:46:21.236Z,26.02
2023-04-07T06:47:21.232Z,26.00
2023-04-07T06:48:21.231Z,26.02
2023-04-07T06:49:21.274Z,26.03
2023-04-07T06:50:21.613Z,26.03
2023-04-07T06:51:21.352Z,26.02
2023-04-07T06:52:27.998Z,26.02
2023-04-07T06:53:21.412Z,26.02
2023-04-07T06:54:21.416Z,26.02
2023-04-07T06:55:21.420Z,26.00
2023-04-07T06:56:21.460Z,26.02
2023-04-07T06:57:21.396Z,26.02
2023-04-07T06:58:21.395Z,26.02
2023-04-07T06:59:21.397Z,26.00
2023-04-07T07:00:21.505Z,26.02
2023-04-07T07:01:21.427Z,26.02
2023-04-07T07:02:21.491Z,26.03
2023-04-07T07:03:21.650Z,26.00
2023-04-07T07:04:21.586Z,26.03
2023-04-07T07:05:21.415Z,26.02
2023-04-07T07:06:21.402Z,26.02
2023-04-07T07:07:21.472Z,26.00
2023-04-07T07:08:21.364Z,26.02
2023-04-07T07:09:21.454Z,26.03
2023-04-07T07:10:21.475Z,26.02
2023-04-07T07:11:21.548Z,25.99
2023-04-07T07:12:21.600Z,26.00
2023-04-07T07:13:21.641Z,26.02
2023-04-07T07:14:21.714Z,26.03
2023-04-07T07:15:21.758Z,26.03
2023-04-07T07:16:21.805Z,26.05
2023-04-07T07:17:21.957Z,26.02
2023-04-07T07:18:21.933Z,26.05
2023-04-07T07:19:21.985Z,26.06
2023-04-07T07:20:22.038Z,26.02
2023-04-07T07:21:22.123Z,26.05
2023-04-07T07:22:22.155Z,26.05
2023-04-07T07:23:22.207Z,26.03
2023-04-07T07:24:22.275Z,26.05
2023-04-07T07:25:22.328Z,26.03
2023-04-07T07:26:22.388Z,26.03
2023-04-07T07:27:22.454Z,26.05
2023-04-07T07:28:22.509Z,26.06
2023-04-07T07:29:23.511Z,26.05
2023-04-07T07:30:22.620Z,26.05
2023-04-07T07:31:22.740Z,26.06
2023-04-07T07:32:22.820Z,26.06
2023-04-07T07:33:22.797Z,26.05
2023-04-07T07:34:22.850Z,26.05
2023-04-07T07:35:22.918Z,26.08
2023-04-07T07:36:22.997Z,26.05
2023-04-07T07:37:23.191Z,26.08
2023-04-07T07:38:23.110Z,26.06
2023-04-07T07:39:23.144Z,26.10
2023-04-07T07:40:23.195Z,26.09
2023-04-07T07:41:23.265Z,26.09
2023-04-07T07:42:23.324Z,26.09
2023-04-07T07:43:23.371Z,26.09
2023-04-07T07:44:23.445Z,26.09
2023-04-07T07:45:23.501Z,26.08
2023-04-07T07:46:23.686Z,26.09
2023-04-07T07:47:23.663Z,26.09
2023-04-07T07:48:23.676Z,26.09
2023-04-07T07:49:23.747Z,26.09
2023-04-07T07:50:23.847Z,26.09
2023-04-07T07:51:23.869Z,26.09
2023-04-07T07:52:24.197Z,26.09
2023-04-07T07:53:24.547Z,26.10
2023-04-07T07:54:24.039Z,26.09
2023-04-07T07:55:24.112Z,26.08
2023-04-07T07:56:24.156Z,26.10
2023-04-07T07:57:24.211Z,26.08
2023-04-07T07:58:24.272Z,26.09
2023-04-07T07:59:24.328Z,26.12
2023-04-07T08:00:24.401Z,26.09
2023-04-07T08:01:24.454Z,26.10
2023-04-07T08:02:24.574Z,26.10
2023-04-07T08:03:24.711Z,26.10
2023-04-07T08:04:24.684Z,26.09
2023-04-07T08:05:24.685Z,26.10
2023-04-07T08:06:24.742Z,26.12
2023-04-07T08:07:24.785Z,26.10
2023-04-07T08:08:24.831Z,26.09
2023-04-07T08:09:24.917Z,26.12
2023-04-07T08:10:25.019Z,26.10
2023-04-07T08:11:25.000Z,26.12
2023-04-07T08:12:25.053Z,26.09
2023-04-07T08:13:25.105Z,26.12
2023-04-07T08:14:25.160Z,26.10
2023-04-07T08:15:25.216Z,26.10
2023-04-07T08:16:25.310Z,26.10
2023-04-07T08:17:25.342Z,26.13
2023-04-07T08:18:25.535Z,26.13
2023-04-07T08:19:25.417Z,26.15
2023-04-07T08:20:26.184Z,26.12
2023-04-07T08:21:26.310Z,26.10
2023-04-07T08:22:28.525Z,26.13
2023-04-07T08:23:25.576Z,26.12
2023-04-07T08:24:25.569Z,26.12
2023-04-07T08:25:25.586Z,26.15
2023-04-07T08:26:25.577Z,26.13
2023-04-07T08:27:26.543Z,26.12
2023-04-07T08:28:28.529Z,26.12
2023-04-07T08:29:29.956Z,26.13
2023-04-07T08:30:25.526Z,26.12
2023-04-07T08:31:25.533Z,26.13
2023-04-07T08:32:25.538Z,26.13
2023-04-07T08:33:25.505Z,26.16
2023-04-07T08:34:25.501Z,26.12
2023-04-07T08:35:25.509Z,26.15
2023-04-07T08:36:25.514Z,26.15
2023-04-07T08:37:25.488Z,26.13
2023-04-07T08:38:25.475Z,26.13
2023-04-07T08:39:25.484Z,26.17
2023-04-07T08:40:25.489Z,26.15
2023-04-07T08:41:25.516Z,26.16
2023-04-07T08:42:25.473Z,26.17
2023-04-07T08:43:25.478Z,26.17
2023-04-07T08:44:25.467Z,26.15
2023-04-07T08:45:25.466Z,26.19
2023-04-07T08:46:25.508Z,26.16
2023-04-07T08:47:25.476Z,26.16
2023-04-07T08:48:25.471Z,26.17
2023-04-07T08:49:25.460Z,26.17
2023-04-07T08:50:25.447Z,26.16
2023-04-07T08:51:25.450Z,26.19
2023-04-07T08:52:25.468Z,26.17
2023-04-07T08:53:25.454Z,26.17
2023-04-07T08:54:25.451Z,26.19
2023-04-07T08:55:25.450Z,26.17
2023-04-07T08:56:25.447Z,26.17
2023-04-07T08:57:25.470Z,26.19
2023-04-07T08:58:26.183Z,26.16
2023-04-07T08:59:25.516Z,26.16
2023-04-07T09:00:25.555Z,26.15
2023-04-07T09:01:26.678Z,26.16
2023-04-07T09:02:25.808Z,26.17
2023-04-07T09:03:25.761Z,26.19
2023-04-07T09:04:25.753Z,26.19
2023-04-07T09:05:26.189Z,26.20
2023-04-07T09:06:26.178Z,26.22
2023-04-07T09:07:26.199Z,26.19
2023-04-07T09:08:26.178Z,26.20
2023-04-07T09:09:29.047Z,26.20
2023-04-07T09:10:26.187Z,26.22
2023-04-07T09:11:26.212Z,26.22
2023-04-07T09:12:26.191Z,26.20
2023-04-07T09:13:26.241Z,26.19
2023-04-07T09:14:26.185Z,26.20
2023-04-07T09:15:28.550Z,26.25
2023-04-07T09:16:26.231Z,26.25
2023-04-07T09:17:26.244Z,26.23
2023-04-07T09:18:26.184Z,26.23
2023-04-07T09:19:26.239Z,26.25
2023-04-07T09:20:26.185Z,26.25
2023-04-07T09:21:26.185Z,26.26
2023-04-07T09:22:28.551Z,26.26
2023-04-07T09:23:26.183Z,26.25
2023-04-07T09:24:26.189Z,26.26
2023-04-07T09:25:28.548Z,26.27
2023-04-07T09:26:26.237Z,26.27
2023-04-07T09:27:26.176Z,26.29
2023-04-07T09:28:26.184Z,26.27
2023-04-07T09:29:26.214Z,26.27
2023-04-07T09:30:26.185Z,26.26
2023-04-07T09:31:26.269Z,26.27
2023-04-07T09:32:26.254Z,26.26
2023-04-07T09:33:28.551Z,26.27
2023-04-07T09:34:26.194Z,26.29
2023-04-07T09:35:26.196Z,26.30
2023-04-07T09:36:26.196Z,26.30
2023-04-07T09:37:26.175Z,26.27
2023-04-07T09:38:26.178Z,26.29
2023-04-07T09:39:26.185Z,26.27
2023-04-07T09:40:28.556Z,26.29
2023-04-07T09:41:26.185Z,26.29
2023-04-07T09:42:26.574Z,26.30
2023-04-07T09:43:26.553Z,26.27
2023-04-07T09:44:28.584Z,26.32
2023-04-07T09:45:34.063Z,26.30
2023-04-07T09:46:26.327Z,26.30
2023-04-07T09:47:28.568Z,26.29
2023-04-07T09:48:26.553Z,26.32
2023-04-07T09:49:28.558Z,26.29
2023-04-07T09:50:26.177Z,26.29
2023-04-07T09:51:26.181Z,26.30
2023-04-07T09:52:26.178Z,26.30
2023-04-07T09:53:26.136Z,26.32
2023-04-07T09:54:26.142Z,26.29
2023-04-07T09:55:26.151Z,26.30
2023-04-07T09:56:25.753Z,26.29
2023-04-07T09:57:25.743Z,26.29
2023-04-07T09:58:25.748Z,26.30
2023-04-07T09:59:25.737Z,26.32
2023-04-07T10:00:25.778Z,26.29
2023-04-07T10:01:25.745Z,26.30
2023-04-07T10:02:25.839Z,26.32
2023-04-07T10:03:25.824Z,26.30
2023-04-07T10:04:26.592Z,26.30
2023-04-07T10:05:25.709Z,26.32
2023-04-07T10:06:25.669Z,26.32
2023-04-07T10:07:25.668Z,26.33
2023-04-07T10:08:25.648Z,26.32
2023-04-07T10:09:26.570Z,26.30
2023-04-07T10:10:25.649Z,26.32
2023-04-07T10:11:25.628Z,26.35
2023-04-07T10:12:25.622Z,26.33
2023-04-07T10:13:25.668Z,26.36
2023-04-07T10:14:25.708Z,26.35
2023-04-07T10:15:25.759Z,26.35
2023-04-07T10:16:26.227Z,26.36
2023-04-07T10:17:26.192Z,26.36
2023-04-07T10:18:26.189Z,26.33
2023-04-07T10:19:26.192Z,26.35
2023-04-07T10:20:26.200Z,26.35
2023-04-07T10:21:26.183Z,26.36
2023-04-07T10:22:26.186Z,26.35
2023-04-07T10:23:26.186Z,26.37
2023-04-07T10:24:26.185Z,26.36
2023-04-07T10:25:26.236Z,26.37
2023-04-07T10:26:26.243Z,26.37
2023-04-07T10:27:26.278Z,26.39
2023-04-07T10:28:26.325Z,26.37
2023-04-07T10:29:26.379Z,26.37
2023-04-07T10:30:26.426Z,26.39
2023-04-07T10:31:26.509Z,26.37
2023-04-07T10:32:26.568Z,26.39
2023-04-07T10:33:26.592Z,26.39
2023-04-07T10:34:26.564Z,26.40
2023-04-07T10:35:26.622Z,26.40
2023-04-07T10:36:27.133Z,26.39
2023-04-07T10:37:26.677Z,26.39
2023-04-07T10:38:26.722Z,26.37
2023-04-07T10:39:27.121Z,26.36
2023-04-07T10:40:27.137Z,26.37
2023-04-07T10:41:27.585Z,26.39
2023-04-07T10:42:27.124Z,26.37
2023-04-07T10:43:27.130Z,26.39
2023-04-07T10:44:27.125Z,26.37
2023-04-07T10:45:27.129Z,26.39
2023-04-07T10:46:27.185Z,26.39
2023-04-07T10:47:27.149Z,26.39
2023-04-07T10:48:27.159Z,26.39
2023-04-07T10:49:27.134Z,26.39
2023-04-07T10:50:27.174Z,26.37
2023-04-07T10:51:27.590Z,26.36
2023-04-07T10:52:27.257Z,26.39
2023-04-07T10:53:27.290Z,26.35
2023-04-07T10:54:29.388Z,26.37
2023-04-07T10:55:28.094Z,26.39
2023-04-07T10:56:27.348Z,26.37
2023-04-07T10:57:27.327Z,26.36
2023-04-07T10:58:27.306Z,26.37
2023-04-07T10:59:27.300Z,26.37
2023-04-07T11:00:27.317Z,26.36
2023-04-07T11:01:27.444Z,26.36
2023-04-07T11:02:30.249Z,26.36
2023-04-07T11:03:27.376Z,26.36
2023-04-07T11:04:27.410Z,26.39
2023-04-07T11:05:27.241Z,26.35
2023-04-07T11:06:27.226Z,26.33
2023-04-07T11:07:27.216Z,26.33
2023-04-07T11:08:27.205Z,26.33
2023-04-07T11:09:28.096Z,26.33
2023-04-07T11:10:27.187Z,26.36
2023-04-07T11:11:27.177Z,26.36
2023-04-07T11:12:27.161Z,26.36
2023-04-07T11:13:27.158Z,26.36
2023-04-07T11:14:27.150Z,26.39
2023-04-07T11:15:27.138Z,26.37
2023-04-07T11:16:27.144Z,26.37
2023-04-07T11:17:27.145Z,26.37
2023-04-07T11:18:27.121Z,26.39
2023-04-07T11:19:27.130Z,26.39
2023-04-07T11:20:27.157Z,26.40
2023-04-07T11:21:27.128Z,26.40
2023-04-07T11:22:30.426Z,26.42
2023-04-07T11:23:27.122Z,26.39
2023-04-07T11:24:28.110Z,26.40
2023-04-07T11:25:27.126Z,26.40
2023-04-07T11:26:27.132Z,26.40
2023-04-07T11:27:27.126Z,26.40
2023-04-07T11:28:27.121Z,26.39
2023-04-07T11:29:27.125Z,26.39
2023-04-07T11:30:27.130Z,26.39
2023-04-07T11:31:27.196Z,26.39
2023-04-07T11:32:27.158Z,26.37
2023-04-07T11:33:29.604Z,26.36
2023-04-07T11:34:27.122Z,26.37
2023-04-07T11:35:27.122Z,26.35
2023-04-07T11:36:27.156Z,26.32
2023-04-07T11:37:27.131Z,26.33
2023-04-07T11:38:27.606Z,26.32
2023-04-07T11:39:27.129Z,26.33
2023-04-07T11:40:27.127Z,26.29
2023-04-07T11:41:29.605Z,26.29
2023-04-07T11:42:27.121Z,26.27
2023-04-07T11:43:29.620Z,26.27
2023-04-07T11:44:29.606Z,26.26
2023-04-07T11:45:27.130Z,26.27
2023-04-07T11:46:27.177Z,26.26
2023-04-07T11:47:27.130Z,26.25
2023-04-07T11:48:27.129Z,26.25
2023-04-07T11:49:27.126Z,26.27
2023-04-07T11:50:27.124Z,26.23
2023-04-07T11:51:27.123Z,26.25
2023-04-07T11:52:27.163Z,26.26
2023-04-07T11:53:27.125Z,26.23
2023-04-07T11:54:27.129Z,26.23
2023-04-07T11:55:27.120Z,26.23
2023-04-07T11:56:27.136Z,26.22
2023-04-07T11:57:27.130Z,26.23
2023-04-07T11:58:27.121Z,26.25
2023-04-07T11:59:27.613Z,26.20
2023-04-07T12:00:27.141Z,26.22
2023-04-07T12:01:27.150Z,26.19
2023-04-07T12:02:27.233Z,26.17
2023-04-07T12:03:27.233Z,26.22
2023-04-07T12:04:27.665Z,26.19
2023-04-07T12:05:27.129Z,26.20
2023-04-07T12:06:26.704Z,26.17
2023-04-07T12:07:28.335Z,26.17
2023-04-07T12:08:26.703Z,26.17
2023-04-07T12:09:27.623Z,26.17
2023-04-07T12:10:26.656Z,26.16
2023-04-07T12:11:26.635Z,26.16
2023-04-07T12:12:26.619Z,26.17
2023-04-07T12:13:26.603Z,26.17
2023-04-07T12:14:26.595Z,26.15
2023-04-07T12:15:27.123Z,26.15
2023-04-07T12:16:26.681Z,26.16
2023-04-07T12:17:26.566Z,26.13
2023-04-07T12:18:26.541Z,26.13
2023-04-07T12:19:26.531Z,26.13
2023-04-07T12:20:26.571Z,26.10
2023-04-07T12:21:26.599Z,26.13
2023-04-07T12:22:26.639Z,26.13
2023-04-07T12:23:26.709Z,26.17
2023-04-07T12:24:27.088Z,26.13
2023-04-07T12:25:27.130Z,26.13
2023-04-07T12:26:27.152Z,26.10
2023-04-07T12:27:41.634Z,26.10
2023-04-07T12:28:27.131Z,26.10
2023-04-07T12:29:27.136Z,26.10
2023-04-07T12:30:27.133Z,26.10
2023-04-07T12:31:27.169Z,26.12
2023-04-07T12:32:27.142Z,26.12
2023-04-07T12:33:27.131Z,26.10
2023-04-07T12:34:27.134Z,26.12
2023-04-07T12:35:27.166Z,26.09
2023-04-07T12:36:27.135Z,26.08
2023-04-07T12:37:27.132Z,26.09
2023-04-07T12:38:27.135Z,26.08
2023-04-07T12:39:27.160Z,26.05
2023-04-07T12:40:27.153Z,26.06
2023-04-07T12:41:27.092Z,26.10
2023-04-07T12:42:26.722Z,26.08
2023-04-07T12:43:26.711Z,26.09
2023-04-07T12:44:29.653Z,26.06
2023-04-07T12:45:26.689Z,26.08
2023-04-07T12:46:26.710Z,26.06
2023-04-07T12:47:27.646Z,26.06
2023-04-07T12:48:26.670Z,26.03
2023-04-07T12:49:26.655Z,26.05
2023-04-07T12:50:26.654Z,26.05
2023-04-07T12:51:26.649Z,26.00
2023-04-07T12:52:26.642Z,26.02
2023-04-07T12:53:26.630Z,26.02
2023-04-07T12:54:26.617Z,26.03